Time;durP1;ratioP1;P1;durP2;ratioP2;P2;SDS_P1;SDS_P2;PMS_P1;PMS_P2;Temp;Humidity;BMP_temperature;BMP_pressure;BME280_temperature;BME280_humidity;BME280_pressure;Samples;Min_cycle;Max_cycle;Signal;HPM_P1;HPM_P2
2023/10/15 00:01:30;;;;;;;;;;;;;;;7.32;100.00;96725.13;5064999;28;19934;-76
2023/10/15 00:03:56;;;;;;;;;;;;;;;7.34;100.00;96717.94;5064896;28;20023;-77
2023/10/15 00:06:22;;;;;;;;;;;;;;;7.37;100.00;96716.75;5064915;28;20129;-78
2023/10/15 00:08:48;;;;;;;;;;;;;;;7.38;100.00;96713.16;5063697;28;19940;-76
2023/10/15 00:11:17;;;;;;;;;;;;;;;7.39;100.00;96717.34;5065569;28;19934;-77
2023/10/15 00:13:46;;;;;;;;;;;;;;;7.40;100.00;96713.75;5064722;28;19942;-77
2023/10/15 00:16:22;;;;;;;;;;;;;;;7.41;100.00;96721.41;5064728;28;19940;-78
2023/10/15 00:18:48;;;;;;;;;;;;;;;7.44;100.00;96713.19;5064657;28;19940;-77
2023/10/15 00:21:14;;;;;;;;;;;;;;;7.45;100.00;96711.38;5064663;28;19938;-77
2023/10/15 00:23:41;;;;;;;;;;;;;;;7.47;100.00;96715.41;5064487;28;19957;-77
2023/10/15 00:26:07;;;;;;;;;;;;;;;7.50;100.00;96716.84;5064877;28;20124;-77
2023/10/15 00:28:33;;;;;;;;;;;;;;;7.50;100.00;96722.84;5065235;28;19936;-77
2023/10/15 00:31:08;;;;;;;;;;;;;;;7.51;100.00;96727.06;5064435;28;19938;-77
2023/10/15 00:33:34;;;;;;;;;;;;;;;7.53;100.00;96719.06;5065254;28;19930;-69
2023/10/15 00:35:59;;;;;;;;;;;;;;;7.52;100.00;96723.47;5064398;28;20205;-69
2023/10/15 00:38:25;;;;;;;;;;;;;;;7.53;100.00;96721.66;5064317;28;19933;-70
2023/10/15 00:41:00;;;;;;;;;;;;;;;7.52;100.00;96710.44;5064335;28;19939;-70
2023/10/15 00:43:26;;;;;;;;;;;;;;;7.51;100.00;96710.59;5064705;28;19962;-71
2023/10/15 00:45:53;;;;;;;;;;;;;;;7.50;100.00;96709.81;5064228;28;19941;-70
2023/10/15 00:48:33;;;;;;;;;;;;;;;7.49;100.00;96713.41;5064172;28;19968;-70
2023/10/15 00:51:04;;;;;;;;;;;;;;;7.48;100.00;96706.59;5063763;28;20472;-70
2023/10/15 00:53:31;;;;;;;;;;;;;;;7.48;100.00;96705.78;5064153;28;20123;-70
2023/10/15 00:56:04;;;;;;;;;;;;;;;7.46;100.00;96707.78;5063802;28;19942;-68
2023/10/15 01:03:52;;;;;;;;;;;;;;;7.42;100.00;96703.94;5063955;28;19956;-69
2023/10/15 01:09:08;;;;;;;;;;;;;;;7.40;100.00;96700.72;5064772;28;20203;-69
2023/10/15 01:11:38;;;;;;;;;;;;;;;7.39;100.00;96702.53;5064181;28;19936;-71
2023/10/15 01:14:04;;;;;;;;;;;;;;;7.39;100.00;96696.47;5064187;28;19937;-70
2023/10/15 01:16:31;;;;;;;;;;;;;;;7.39;100.00;96702.53;5063881;28;19942;-70
2023/10/15 01:21:38;;;;;;;;;;;;;;;7.39;100.00;96705.13;5064645;28;19931;-70
2023/10/15 01:24:07;;;;;;;;;;;;;;;7.40;100.00;96701.50;5064611;28;19954;-70
2023/10/15 01:26:39;;;;;;;;;;;;;;;7.41;100.00;96697.94;5063730;28;19984;-70
2023/10/15 01:29:08;;;;;;;;;;;;;;;7.39;100.00;96692.09;5064364;28;19940;-73
2023/10/15 01:31:43;;;;;;;;;;;;;;;7.41;100.00;96710.97;5064282;28;19949;-78
2023/10/15 01:34:09;;;;;;;;;;;;;;;7.41;100.00;96697.94;5064236;28;19940;-69
2023/10/15 01:36:38;;;;;;;;;;;;;;;7.42;100.00;96694.31;5063666;28;19992;-70
2023/10/15 01:39:10;;;;;;;;;;;;;;;7.43;100.00;96698.53;5063663;28;19935;-69
2023/10/15 01:41:39;;;;;;;;;;;;;;;7.43;100.00;96690.72;5064179;28;20104;-68
2023/10/15 01:44:06;;;;;;;;;;;;;;;7.43;100.00;96695.09;5063553;28;19951;-69
2023/10/15 01:46:48;;;;;;;;;;;;;;;7.44;100.00;96700.13;5064357;28;19940;-68
2023/10/15 01:49:33;;;;;;;;;;;;;;;7.45;100.00;96696.50;5064199;28;19945;-76
2023/10/15 01:52:05;;;;;;;;;;;;;;;7.48;100.00;96698.75;5063827;28;19952;-70
2023/10/15 01:54:37;;;;;;;;;;;;;;;7.48;100.00;96690.94;5064105;28;19936;-70
2023/10/15 01:57:06;;;;;;;;;;;;;;;7.50;100.00;96699.38;5063517;28;19935;-70
2023/10/15 01:59:41;;;;;;;;;;;;;;;7.51;100.00;96690.53;5063888;28;19945;-70
2023/10/15 02:02:08;;;;;;;;;;;;;;;7.53;100.00;96690.34;5064030;28;19934;-70
2023/10/15 02:04:42;;;;;;;;;;;;;;;7.55;100.00;96690.16;5063348;28;19954;-69
2023/10/15 02:07:12;;;;;;;;;;;;;;;7.55;100.00;96692.78;5063480;28;20133;-70
2023/10/15 02:09:38;;;;;;;;;;;;;;;7.55;100.00;96690.97;5067365;28;19931;-71
2023/10/15 02:12:07;;;;;;;;;;;;;;;7.55;100.00;96685.75;5067156;28;19940;-70
2023/10/15 02:14:33;;;;;;;;;;;;;;;7.56;100.00;96687.38;5067005;28;19939;-70
2023/10/15 02:16:59;;;;;;;;;;;;;;;7.55;100.00;96688.34;5067855;28;19937;-71
2023/10/15 02:19:44;;;;;;;;;;;;;;;7.52;100.00;96689.53;5067256;28;19951;-71
2023/10/15 02:22:13;;;;;;;;;;;;;;;7.52;100.00;96694.78;5067761;28;19944;-71
2023/10/15 02:24:46;;;;;;;;;;;;;;;7.55;100.00;96682.34;5067598;28;19952;-80
2023/10/15 02:27:17;;;;;;;;;;;;;;;7.57;100.00;96683.75;5067688;28;19931;-70
2023/10/15 02:29:49;;;;;;;;;;;;;;;7.59;100.00;96675.72;5066830;28;20219;-70
2023/10/15 02:34:44;;;;;;;;;;;;;;;7.62;100.00;96672.72;5066640;28;19954;-70
2023/10/15 02:37:11;;;;;;;;;;;;;;;7.60;100.00;96662.50;5066660;28;19975;-69
2023/10/15 02:39:43;;;;;;;;;;;;;;;7.59;100.00;96673.91;5066539;28;19937;-70
2023/10/15 02:42:10;;;;;;;;;;;;;;;7.61;100.00;96677.16;5066532;28;20130;-69
2023/10/15 02:44:38;;;;;;;;;;;;;;;7.61;100.00;96674.53;5067008;28;19952;-77
2023/10/15 02:47:10;;;;;;;;;;;;;;;7.63;100.00;96682.97;5081917;28;20281;-70
2023/10/15 02:49:59;;;;;;;;;;;;;;;7.63;100.00;96672.53;5066351;28;19950;-70
2023/10/15 02:52:26;;;;;;;;;;;;;;;7.63;100.00;96677.75;5066679;28;20130;-70
2023/10/15 02:54:52;;;;;;;;;;;;;;;7.65;100.00;96672.34;5066281;28;19959;-70
2023/10/15 02:57:18;;;;;;;;;;;;;;;7.66;100.00;96671.34;5066235;28;19930;-70
2023/10/15 02:59:51;;;;;;;;;;;;;;;7.65;100.00;96664.53;5066273;28;19937;-70
2023/10/15 03:02:18;;;;;;;;;;;;;;;7.66;100.00;96673.94;5066259;28;19935;-71
2023/10/15 03:04:50;;;;;;;;;;;;;;;7.68;100.00;96671.94;5066607;28;19959;-70
2023/10/15 03:07:31;;;;;;;;;;;;;;;7.68;100.00;96666.72;5066411;28;19942;-71
2023/10/15 03:09:57;;;;;;;;;;;;;;;7.69;100.00;96681.41;5066121;28;19940;-71
2023/10/15 03:12:24;;;;;;;;;;;;;;;7.71;100.00;96674.19;5066599;28;20178;-70
2023/10/15 03:14:51;;;;;;;;;;;;;;;7.70;100.00;96675.97;5066032;28;19935;-71
2023/10/15 03:17:29;;;;;;;;;;;;;;;7.71;100.00;96676.81;5066052;28;19943;-71
2023/10/15 03:20:49;;;;;;;;;;;;;;;7.69;100.00;96676.19;5065704;28;20118;-68
2023/10/15 03:22:45;;;;;;;;;;;;;;;7.66;100.00;96685.19;5058540;28;19939;-75
2023/10/15 03:25:15;;;;;;;;;;;;;;;7.65;100.00;96678.38;5066235;28;20265;-75
2023/10/15 03:27:48;;;;;;;;;;;;;;;7.60;100.00;96678.16;5066008;28;19946;-75
2023/10/15 03:30:14;;;;;;;;;;;;;;;7.59;100.00;96670.50;5065682;28;19934;-75
2023/10/15 03:32:41;;;;;;;;;;;;;;;7.59;100.00;96671.31;5065634;28;19947;-75
2023/10/15 03:35:16;;;;;;;;;;;;;;;7.59;100.00;96676.53;5065516;28;20139;-75
2023/10/15 03:37:45;;;;;;;;;;;;;;;7.59;100.00;96673.91;5066070;28;19944;-70
2023/10/15 03:40:41;;;;;;;;;;;;;;;7.61;100.00;96678.97;5065559;28;19938;-72
2023/10/15 03:43:06;;;;;;;;;;;;;;;7.60;100.00;96669.50;5065981;28;20133;-75
2023/10/15 03:45:33;;;;;;;;;;;;;;;7.60;100.00;96678.16;5065373;28;19934;-75
2023/10/15 03:48:00;;;;;;;;;;;;;;;7.60;100.00;96675.53;5065193;28;19963;-75
2023/10/15 03:50:29;;;;;;;;;;;;;;;7.62;100.00;96686.59;5065245;28;19942;-76
2023/10/15 03:52:58;;;;;;;;;;;;;;;7.65;100.00;96688.00;5065510;28;19943;-75
2023/10/15 03:55:24;;;;;;;;;;;;;;;7.66;100.00;96682.56;5065476;28;19937;-76
2023/10/15 03:57:52;;;;;;;;;;;;;;;7.66;100.00;96685.19;5066021;28;19929;-81
2023/10/15 04:00:46;;;;;;;;;;;;;;;7.66;100.00;96673.94;5065609;28;20210;-76
2023/10/15 04:03:28;;;;;;;;;;;;;;;7.66;100.00;96673.94;5065254;28;19987;-76
2023/10/15 04:06:00;;;;;;;;;;;;;;;7.62;100.00;96675.34;5065546;28;19937;-76
2023/10/15 04:08:31;;;;;;;;;;;;;;;7.55;100.00;96657.03;5065806;28;20133;-77
2023/10/15 04:11:00;;;;;;;;;;;;;;;7.52;100.00;96650.41;5065371;28;19943;-76
2023/10/15 04:13:26;;;;;;;;;;;;;;;7.53;100.00;96659.84;5064751;28;20129;-76
2023/10/15 04:15:55;;;;;;;;;;;;;;;7.56;100.00;96674.31;5064792;28;19934;-70
2023/10/15 04:18:23;;;;;;;;;;;;;;;7.58;100.00;96672.31;5065115;28;19934;-76
2023/10/15 04:20:49;;;;;;;;;;;;;;;7.60;100.00;96680.75;5065192;28;19939;-76
2023/10/15 04:23:30;;;;;;;;;;;;;;;7.61;100.00;96677.16;5064932;28;20123;-76
2023/10/15 04:26:04;;;;;;;;;;;;;;;7.62;100.00;96665.72;5065170;28;19928;-77
2023/10/15 04:28:30;;;;;;;;;;;;;;;7.65;100.00;96680.19;5064612;28;19934;-77
2023/10/15 04:30:56;;;;;;;;;;;;;;;7.65;100.00;96682.78;5064498;28;19939;-76
2023/10/15 04:33:25;;;;;;;;;;;;;;;7.62;100.00;96685.78;5065305;28;19991;-69
2023/10/15 04:35:51;;;;;;;;;;;;;;;7.60;100.00;96682.56;5064433;28;19964;-69
2023/10/15 04:38:28;;;;;;;;;;;;;;;7.61;100.00;96690.19;5064367;28;19932;-71
2023/10/15 04:43:26;;;;;;;;;;;;;;;7.61;100.00;96692.00;5064270;28;19934;-70
2023/10/15 04:45:56;;;;;;;;;;;;;;;7.59;100.00;96691.38;5064329;28;19934;-71
2023/10/15 04:48:38;;;;;;;;;;;;;;;7.58;100.00;96684.53;5064173;28;19963;-70
2023/10/15 04:51:13;;;;;;;;;;;;;;;7.57;100.00;96686.34;5064576;28;19942;-70
2023/10/15 04:53:44;;;;;;;;;;;;;;;7.59;100.00;96691.38;5064231;28;20125;-78
2023/10/15 04:56:11;;;;;;;;;;;;;;;7.59;100.00;96691.38;5064722;28;20237;-75
2023/10/15 04:58:37;;;;;;;;;;;;;;;7.56;100.00;96703.03;5064934;28;19942;-75
2023/10/15 05:01:04;;;;;;;;;;;;;;;7.58;100.00;96689.75;5064591;28;19944;-75
2023/10/15 05:03:31;;;;;;;;;;;;;;;7.58;100.00;96689.75;5064557;28;19952;-77
2023/10/15 05:06:01;;;;;;;;;;;;;;;7.55;100.00;96687.56;5064025;28;20123;-76
2023/10/15 05:08:27;;;;;;;;;;;;;;;7.53;100.00;96690.34;5064026;28;19938;-76
2023/10/15 05:10:53;;;;;;;;;;;;;;;7.55;100.00;96688.34;5064588;28;19933;-69
2023/10/15 05:13:19;;;;;;;;;;;;;;;7.58;100.00;96690.59;5063951;28;19931;-78
2023/10/15 05:15:49;;;;;;;;;;;;;;;7.63;100.00;96697.84;5063925;28;19932;-78
2023/10/15 05:18:15;;;;;;;;;;;;;;;7.65;100.00;96691.41;5063952;28;20131;-78
2023/10/15 05:20:42;;;;;;;;;;;;;;;7.70;100.00;96693.44;5063905;28;19932;-78
2023/10/15 05:23:09;;;;;;;;;;;;;;;7.71;100.00;96692.47;5064765;28;19936;-78
2023/10/15 05:25:35;;;;;;;;;;;;;;;7.71;100.00;96687.25;5063770;28;19974;-78
2023/10/15 05:28:01;;;;;;;;;;;;;;;7.75;100.00;96698.09;5064639;28;20164;-69
2023/10/15 05:30:26;;;;;;;;;;;;;;;7.73;100.00;96695.69;5064583;28;19943;-70
2023/10/15 05:32:52;;;;;;;;;;;;;;;7.75;100.00;96690.25;5063721;28;19930;-75
2023/10/15 05:35:18;;;;;;;;;;;;;;;7.76;100.00;96687.47;5063683;28;20034;-76
2023/10/15 05:37:45;;;;;;;;;;;;;;;7.77;100.00;96685.63;5063693;28;19956;-75
2023/10/15 05:40:17;;;;;;;;;;;;;;;7.77;100.00;96686.47;5063646;28;19942;-75
2023/10/15 05:42:43;;;;;;;;;;;;;;;7.77;100.00;96689.09;5064418;28;19953;-77
2023/10/15 05:45:09;;;;;;;;;;;;;;;7.78;100.00;96685.47;5068075;28;20228;-77
2023/10/15 05:47:35;;;;;;;;;;;;;;;7.79;100.00;96691.47;5067504;28;19964;-69
2023/10/15 05:50:04;;;;;;;;;;;;;;;7.79;100.00;96699.31;5083207;28;20239;-69
2023/10/15 05:52:30;;;;;;;;;;;;;;;7.78;100.00;96700.31;5067532;28;19940;-69
2023/10/15 05:54:56;;;;;;;;;;;;;;;7.78;100.00;96701.13;5067527;28;19962;-69
2023/10/15 05:57:22;;;;;;;;;;;;;;;7.80;100.00;96703.53;5067536;28;20223;-69
2023/10/15 05:59:48;;;;;;;;;;;;;;;7.81;100.00;96707.75;5067359;28;19955;-69
2023/10/15 06:02:14;;;;;;;;;;;;;;;7.83;100.00;96711.81;5067421;28;19932;-69
2023/10/15 06:04:40;;;;;;;;;;;;;;;7.85;100.00;96719.44;5067249;28;19950;-69
2023/10/15 06:07:07;;;;;;;;;;;;;;;7.86;100.00;96718.44;5068087;28;20112;-69
2023/10/15 06:09:34;;;;;;;;;;;;;;;7.87;100.00;96714.81;5067186;28;19939;-79
2023/10/15 06:12:00;;;;;;;;;;;;;;;7.86;100.00;96714.00;5067214;28;19933;-79
2023/10/15 06:14:28;;;;;;;;;;;;;;;7.88;100.00;96713.84;5067631;28;19995;-76
2023/10/15 06:16:57;;;;;;;;;;;;;;;7.89;100.00;96725.88;5067339;28;19932;-76
2023/10/15 06:19:23;;;;;;;;;;;;;;;7.89;100.00;96726.66;5067071;28;19928;-77
2023/10/15 06:21:49;;;;;;;;;;;;;;;7.91;100.00;96729.09;5066974;28;19990;-77
2023/10/15 06:24:15;;;;;;;;;;;;;;;7.93;100.00;96733.13;5067422;28;19945;-76
2023/10/15 06:26:41;;;;;;;;;;;;;;;7.96;100.00;96731.13;5067136;28;19937;-71
2023/10/15 06:29:09;;;;;;;;;;;;;;;7.99;100.00;96742.00;5067408;28;19931;-71
2023/10/15 06:31:36;;;;;;;;;;;;;;;8.03;100.00;96747.66;5066843;28;19962;-70
2023/10/15 06:34:01;;;;;;;;;;;;;;;8.05;100.00;96751.66;5067206;28;20162;-71
2023/10/15 06:36:27;;;;;;;;;;;;;;;8.10;100.00;96753.69;5066755;28;19941;-71
2023/10/15 06:38:53;;;;;;;;;;;;;;;8.18;100.00;96750.13;5066647;28;20280;-71
2023/10/15 06:41:19;;;;;;;;;;;;;;;8.13;100.00;96755.94;5066635;28;20195;-70
2023/10/15 06:43:47;;;;;;;;;;;;;;;8.03;100.00;96756.28;5066589;28;19938;-75
2023/10/15 06:46:12;;;;;;;;;;;;;;;7.96;100.00;96759.84;5066634;28;20228;-73
2023/10/15 06:48:38;;;;;;;;;;;;;;;7.95;100.00;96753.81;5066437;28;20024;-74
2023/10/15 06:51:06;;;;;;;;;;;;;;;7.98;100.00;96761.28;5066509;28;19981;-74
2023/10/15 06:53:32;;;;;;;;;;;;;;;8.01;100.00;96758.28;5065973;28;19929;-75
2023/10/15 06:55:58;;;;;;;;;;;;;;;8.06;100.00;96765.53;5066546;28;19963;-75
2023/10/15 06:58:25;;;;;;;;;;;;;;;8.08;100.00;96766.13;5066307;28;19930;-75
2023/10/15 07:00:55;;;;;;;;;;;;;;;8.11;100.00;96769.19;5066240;28;19938;-69
2023/10/15 07:03:21;;;;;;;;;;;;;;;8.17;100.00;96782.44;5066236;28;19934;-70
2023/10/15 07:05:47;;;;;;;;;;;;;;;8.20;100.00;96780.25;5066616;28;19966;-70
2023/10/15 07:08:12;;;;;;;;;;;;;;;8.20;100.00;96772.44;5066133;28;19937;-70
2023/10/15 07:10:39;;;;;;;;;;;;;;;8.21;100.00;96781.06;5066075;28;19933;-70
2023/10/15 07:13:04;;;;;;;;;;;;;;;8.23;100.00;96776.44;5066036;28;19957;-70
2023/10/15 07:15:32;;;;;;;;;;;;;;;8.26;100.00;96779.50;5066509;28;20206;-70
2023/10/15 07:17:58;;;;;;;;;;;;;;;8.29;100.00;96770.44;5065931;28;19960;-70
2023/10/15 07:20:24;;;;;;;;;;;;;;;8.27;100.00;96773.28;5066004;28;19996;-78
2023/10/15 07:22:50;;;;;;;;;;;;;;;8.31;100.00;96778.91;5065780;28;20219;-74
2023/10/15 07:25:20;;;;;;;;;;;;;;;8.33;100.00;96785.53;5066270;28;19992;-73
2023/10/15 07:27:48;;;;;;;;;;;;;;;8.36;100.00;96783.53;5066518;28;19930;-73
2023/10/15 07:30:15;;;;;;;;;;;;;;;8.41;100.00;96783.81;5065685;28;19948;-73
2023/10/15 07:32:42;;;;;;;;;;;;;;;8.46;100.00;96786.63;5065591;28;19943;-74
2023/10/15 07:35:11;;;;;;;;;;;;;;;8.49;100.00;96791.47;5065513;28;19947;-74
2023/10/15 07:37:46;;;;;;;;;;;;;;;8.52;100.00;96786.66;5065538;28;19945;-69
2023/10/15 07:40:21;;;;;;;;;;;;;;;8.54;100.00;96802.13;5066116;28;19936;-77
2023/10/15 07:42:48;;;;;;;;;;;;;;;8.63;100.00;96800.97;5066262;28;19931;-77
2023/10/15 07:45:14;;;;;;;;;;;;;;;8.91;100.00;96802.66;5065350;28;20240;-77
2023/10/15 07:47:40;;;;;;;;;;;;;;;9.09;100.00;96802.91;5065197;28;19961;-78
2023/10/15 07:50:14;;;;;;;;;;;;;;;9.09;100.00;96795.03;5065314;28;20010;-77
2023/10/15 07:52:40;;;;;;;;;;;;;;;9.18;100.00;96800.88;5065579;28;19923;-78
2023/10/15 07:55:06;;;;;;;;;;;;;;;9.38;100.00;96806.13;5065282;28;19976;-70
2023/10/15 07:57:32;;;;;;;;;;;;;;;9.59;100.00;96802.50;5065483;28;19934;-75
2023/10/15 07:59:58;;;;;;;;;;;;;;;9.78;100.00;96797.44;5065687;28;20209;-71
2023/10/15 08:02:27;;;;;;;;;;;;;;;9.86;100.00;96787.56;5065054;28;19972;-71
2023/10/15 08:04:54;;;;;;;;;;;;;;;10.01;100.00;96807.47;5064824;28;20148;-71
2023/10/15 08:07:20;;;;;;;;;;;;;;;10.15;100.00;96793.34;5064203;28;19930;-71
2023/10/15 08:09:46;;;;;;;;;;;;;;;10.23;100.00;96789.69;5064930;28;20217;-71
2023/10/15 08:12:12;;;;;;;;;;;;;;;10.31;100.00;96778.97;5065126;28;19979;-71
2023/10/15 08:14:38;;;;;;;;;;;;;;;10.40;100.00;96792.69;5064865;28;19934;-76
2023/10/15 08:17:04;;;;;;;;;;;;;;;10.48;100.00;96784.59;5064824;28;19935;-71
2023/10/15 08:19:30;;;;;;;;;;;;;;;10.56;100.00;96773.84;5065309;28;19933;-71
2023/10/15 08:21:56;;;;;;;;;;;;;;;10.66;100.00;96773.38;5065477;28;19941;-71
2023/10/15 08:24:21;;;;;;;;;;;;;;;10.79;100.00;96786.41;5064664;28;20120;-71
2023/10/15 08:26:47;;;;;;;;;;;;;;;10.89;100.00;96778.91;5065370;28;19975;-71
2023/10/15 08:29:13;;;;;;;;;;;;;;;10.95;100.00;96785.13;5064572;28;19944;-71
2023/10/15 08:31:39;;;;;;;;;;;;;;;10.89;100.00;96772.84;5064461;28;19930;-71
2023/10/15 08:34:05;;;;;;;;;;;;;;;10.87;100.00;96803.75;5065209;28;20224;-71
2023/10/15 08:36:32;;;;;;;;;;;;;;;10.86;100.00;96807.41;5064414;28;19932;-76
2023/10/15 08:38:59;;;;;;;;;;;;;;;10.76;100.00;96786.84;5064352;28;19936;-76
2023/10/15 08:41:29;;;;;;;;;;;;;;;10.54;100.00;96760.13;5065186;28;19963;-75
2023/10/15 08:43:56;;;;;;;;;;;;;;;10.29;100.00;96780.97;5064215;28;19934;-76
2023/10/15 08:46:23;;;;;;;;;;;;;;;10.12;100.00;96746.56;5064300;28;20220;-76
2023/10/15 08:48:49;;;;;;;;;;;;;;;10.09;100.00;96775.81;5064044;28;19966;-76
2023/10/15 08:51:21;;;;;;;;;;;;;;;10.18;100.00;96768.53;5064248;28;20247;-76
2023/10/15 08:53:50;;;;;;;;;;;;;;;10.16;100.00;96739.91;5064194;28;19931;-70
2023/10/15 08:56:20;;;;;;;;;;;;;;;10.12;100.00;96768.34;5064148;28;20230;-71
2023/10/15 08:58:52;;;;;;;;;;;;;;;10.08;100.00;96780.25;5064079;28;19930;-71
2023/10/15 09:01:21;;;;;;;;;;;;;;;10.01;100.00;96749.84;5064621;28;20218;-71
2023/10/15 09:03:47;;;;;;;;;;;;;;;9.92;100.00;96765.78;5064004;28;19931;-71
2023/10/15 09:06:14;;;;;;;;;;;;;;;9.87;100.00;96776.06;5063919;28;20193;-72
2023/10/15 09:08:41;;;;;;;;;;;;;;;9.83;100.00;96764.41;5063923;28;19938;-72
2023/10/15 09:11:07;;;;;;;;;;;;;;;9.77;100.00;96778.31;5064057;28;20137;-74
2023/10/15 09:13:36;;;;;;;;;;;;;;;9.71;100.00;96782.53;5064412;28;19945;-78
2023/10/15 09:16:07;;;;;;;;;;;;;;;9.68;100.00;96775.09;5064464;28;19939;-78
2023/10/15 09:18:35;;;;;;;;;;;;;;;9.76;100.00;96774.06;5063580;28;19932;-78
2023/10/15 09:21:04;;;;;;;;;;;;;;;9.99;100.00;96772.81;5064427;28;20239;-78
2023/10/15 09:23:36;;;;;;;;;;;;;;;10.17;100.00;96770.34;5063853;28;19950;-78
2023/10/15 09:26:04;;;;;;;;;;;;;;;10.38;100.00;96787.66;5063774;28;19950;-77
2023/10/15 09:28:30;;;;;;;;;;;;;;;10.46;100.00;96797.09;5063859;28;19944;-69
2023/10/15 09:31:03;;;;;;;;;;;;;;;10.40;100.00;96776.97;5064571;28;19942;-69
2023/10/15 09:33:29;;;;;;;;;;;;;;;10.26;100.00;96776.97;5063756;28;19930;-69
2023/10/15 09:35:55;;;;;;;;;;;;;;;10.11;100.00;96750.22;5063628;28;20148;-69
2023/10/15 09:38:21;;;;;;;;;;;;;;;9.91;100.00;96764.19;5063676;28;19931;-69
2023/10/15 09:40:47;;;;;;;;;;;;;;;9.83;100.00;96800.28;5063605;28;20116;-69
2023/10/15 09:43:13;;;;;;;;;;;;;;;9.79;100.00;96791.22;5063713;28;20126;-69
2023/10/15 09:45:41;;;;;;;;;;;;;;;9.73;100.00;96791.00;5063443;28;20144;-70
2023/10/15 09:48:09;;;;;;;;;;;;;;;9.78;100.00;96790.38;5063484;28;19968;-70
2023/10/15 09:50:38;;;;;;;;;;;;;;;9.75;100.00;96788.97;5063560;28;20251;-70
2023/10/15 09:53:10;;;;;;;;;;;;;;;9.66;100.00;96752.72;5063219;28;19944;-69
2023/10/15 09:55:37;;;;;;;;;;;;;;;9.63;100.00;96788.00;5063540;28;19963;-70
2023/10/15 09:58:09;;;;;;;;;;;;;;;9.68;100.00;96805.69;5063565;28;19944;-70
2023/10/15 10:01:28;;;;;;;;;;;;;;;9.68;100.00;96806.53;5064337;28;20080;-70
2023/10/15 10:03:37;;;;;;;;;;;;;;;9.67;100.00;96820.63;5058012;28;20225;-70
2023/10/15 10:06:15;;;;;;;;;;;;;;;9.66;100.00;96805.94;5063914;28;19951;-75
2023/10/15 10:08:53;;;;;;;;;;;;;;;9.65;100.00;96832.31;5063637;28;20212;-76
2023/10/15 10:11:22;;;;;;;;;;;;;;;9.70;100.00;96816.78;5064224;28;19935;-76
2023/10/15 10:14:07;;;;;;;;;;;;;;;9.80;100.00;96771.84;5063517;28;19935;-76
2023/10/15 10:16:33;;;;;;;;;;;;;;;9.94;100.00;96784.72;5063406;28;20129;-76
2023/10/15 10:19:00;;;;;;;;;;;;;;;10.12;100.00;96781.47;5063293;28;19943;-76
2023/10/15 10:21:28;;;;;;;;;;;;;;;10.39;100.00;96756.97;5063301;28;19939;-75
2023/10/15 10:23:58;;;;;;;;;;;;;;;10.63;100.00;96756.25;5063267;28;20106;-78
2023/10/15 10:26:26;;;;;;;;;;;;;;;10.84;96.70;96702.66;5063398;28;19949;-72
2023/10/15 10:28:54;;;;;;;;;;;;;;;11.09;96.39;96713.16;5064102;28;20231;-72
2023/10/15 10:31:21;;;;;;;;;;;;;;;11.20;92.11;96677.53;5066854;28;19942;-72
2023/10/15 10:33:50;;;;;;;;;;;;;;;11.11;86.99;96650.75;5066779;28;20132;-72
2023/10/15 10:36:27;;;;;;;;;;;;;;;11.03;92.71;96692.22;5066677;28;19949;-72
2023/10/15 10:38:56;;;;;;;;;;;;;;;10.94;97.36;96729.22;5067501;28;19939;-72
2023/10/15 10:41:30;;;;;;;;;;;;;;;10.85;89.03;96700.81;5066639;28;19945;-78
2023/10/15 10:43:58;;;;;;;;;;;;;;;10.63;98.39;96755.47;5066801;28;19936;-77
2023/10/15 10:46:24;;;;;;;;;;;;;;;10.49;96.10;96757.34;5066513;28;19971;-78
2023/10/15 10:49:13;;;;;;;;;;;;;;;10.38;96.89;96755.38;5066776;28;20027;-78
2023/10/15 10:51:42;;;;;;;;;;;;;;;10.27;100.00;96770.72;5067251;28;20103;-78
2023/10/15 10:54:08;;;;;;;;;;;;;;;10.12;100.00;96773.59;5066397;28;20221;-77
2023/10/15 10:56:40;;;;;;;;;;;;;;;10.05;97.46;96756.28;5066340;28;20000;-79
2023/10/15 10:59:14;;;;;;;;;;;;;;;9.91;96.97;96745.84;5067144;28;20094;-78
2023/10/15 11:01:41;;;;;;;;;;;;;;;9.83;97.04;96747.88;5066208;28;19996;-78
2023/10/15 11:04:07;;;;;;;;;;;;;;;9.98;100.00;96792.97;5066989;28;19942;-76
2023/10/15 11:06:33;;;;;;;;;;;;;;;10.26;98.69;96753.38;5066646;28;19957;-77
2023/10/15 11:09:00;;;;;;;;;;;;;;;10.52;99.57;96756.91;5066574;28;19947;-76
2023/10/15 11:11:26;;;;;;;;;;;;;;;10.80;92.20;96692.81;5066070;28;19942;-76
2023/10/15 11:13:54;;;;;;;;;;;;;;;11.02;89.76;96667.00;5066528;28;19999;-76
2023/10/15 11:16:21;;;;;;;;;;;;;;;11.23;86.94;96661.34;5065963;28;20121;-76
2023/10/15 11:18:47;;;;;;;;;;;;;;;11.46;89.49;96683.56;5065887;28;19934;-69
2023/10/15 11:21:17;;;;;;;;;;;;;;;11.66;85.05;96662.34;5066790;28;19961;-78
2023/10/15 11:23:43;;;;;;;;;;;;;;;11.81;77.15;96607.59;5065803;28;20125;-78
2023/10/15 11:26:09;;;;;;;;;;;;;;;11.85;81.21;96640.28;5065719;28;19947;-79
2023/10/15 11:28:35;;;;;;;;;;;;;;;11.94;77.67;96635.56;5065679;28;20104;-78
2023/10/15 11:31:04;;;;;;;;;;;;;;;11.84;79.66;96720.13;5066079;28;19939;-77
2023/10/15 11:33:30;;;;;;;;;;;;;;;11.65;75.78;96721.94;5065237;28;19931;-78
2023/10/15 11:35:56;;;;;;;;;;;;;;;11.37;79.64;96740.81;5065464;28;20321;-77
2023/10/15 11:38:31;;;;;;;;;;;;;;;11.11;78.46;96741.84;5065639;28;20189;-76
2023/10/15 11:40:57;;;;;;;;;;;;;;;11.00;83.02;96760.88;5064852;28;20128;-70
2023/10/15 11:43:23;;;;;;;;;;;;;;;10.90;81.54;96769.22;5065420;28;19934;-70
2023/10/15 11:45:49;;;;;;;;;;;;;;;10.76;79.69;96752.75;5065242;28;19947;-70
2023/10/15 11:48:21;;;;;;;;;;;;;;;10.45;86.07;96777.91;5065546;28;19966;-70
2023/10/15 11:50:48;;;;;;;;;;;;;;;10.16;88.40;96806.25;5065789;28;19937;-70
2023/10/15 11:53:16;;;;;;;;;;;;;;;9.75;85.30;96796.03;5065258;28;19945;-70
2023/10/15 11:55:48;;;;;;;;;;;;;;;9.48;88.04;96818.81;5065665;28;19929;-71
2023/10/15 11:58:16;;;;;;;;;;;;;;;9.29;88.96;96826.44;5065453;28;19938;-73
2023/10/15 12:00:42;;;;;;;;;;;;;;;9.14;90.42;96831.06;5065084;28;19942;-73
2023/10/15 12:03:09;;;;;;;;;;;;;;;9.00;93.60;96848.53;5065096;28;19935;-73
2023/10/15 12:05:37;;;;;;;;;;;;;;;8.96;94.35;96847.31;5065480;28;19950;-74
2023/10/15 12:08:03;;;;;;;;;;;;;;;9.08;98.45;96850.19;5065524;28;19939;-73
2023/10/15 12:10:29;;;;;;;;;;;;;;;9.33;97.90;96859.06;5065314;28;19934;-74
2023/10/15 12:12:55;;;;;;;;;;;;;;;9.51;97.90;96853.25;5064832;28;20243;-72
2023/10/15 12:15:21;;;;;;;;;;;;;;;9.54;94.53;96852.84;5064817;28;19937;-69
2023/10/15 12:17:47;;;;;;;;;;;;;;;9.44;94.41;96836.72;5064673;28;20094;-70
2023/10/15 12:20:14;;;;;;;;;;;;;;;9.37;99.96;96851.63;5064680;28;19944;-70
2023/10/15 12:22:40;;;;;;;;;;;;;;;9.39;99.30;96840.97;5064575;28;19932;-70
2023/10/15 12:25:08;;;;;;;;;;;;;;;9.43;99.61;96831.69;5064544;28;20194;-70
2023/10/15 12:27:34;;;;;;;;;;;;;;;9.45;90.82;96795.66;5064641;28;19936;-70
2023/10/15 12:30:07;;;;;;;;;;;;;;;9.66;95.11;96823.44;5065310;28;19962;-70
2023/10/15 12:32:33;;;;;;;;;;;;;;;9.90;92.32;96807.09;5065035;28;19937;-70
2023/10/15 12:35:08;;;;;;;;;;;;;;;10.07;86.06;96786.50;5064364;28;20004;-75
2023/10/15 12:37:36;;;;;;;;;;;;;;;10.22;91.13;96803.78;5064381;28;19943;-75
2023/10/15 12:40:10;;;;;;;;;;;;;;;10.36;91.31;96810.63;5065169;28;19933;-74
2023/10/15 12:42:37;;;;;;;;;;;;;;;10.55;90.20;96795.84;5063201;28;19938;-75
2023/10/15 12:45:03;;;;;;;;;;;;;;;10.71;88.14;96791.94;5064461;28;19958;-75
2023/10/15 12:47:29;;;;;;;;;;;;;;;10.72;87.09;96789.09;5064596;28;19960;-74
2023/10/15 12:49:55;;;;;;;;;;;;;;;10.60;85.61;96788.13;5064201;28;19932;-73
2023/10/15 12:52:21;;;;;;;;;;;;;;;10.46;87.69;96795.28;5063689;28;19946;-71
2023/10/15 12:54:47;;;;;;;;;;;;;;;10.37;80.72;96770.28;5064115;28;19940;-72
2023/10/15 12:57:13;;;;;;;;;;;;;;;10.49;86.70;96801.91;5064139;28;19937;-71
2023/10/15 12:59:38;;;;;;;;;;;;;;;10.68;81.10;96773.97;5064552;28;19930;-72
2023/10/15 13:02:04;;;;;;;;;;;;;;;10.86;83.69;96775.91;5064015;28;19936;-71
2023/10/15 13:04:30;;;;;;;;;;;;;;;11.08;78.56;96763.25;5064740;28;20261;-72
2023/10/15 13:06:56;;;;;;;;;;;;;;;11.11;76.39;96768.09;5064282;28;20249;-72
2023/10/15 13:09:25;;;;;;;;;;;;;;;10.91;76.66;96776.06;5063942;28;19962;-74